Portada
METAR-TAF:

METAR-TAF

Aeropuertos :

Aeropuerto Internacional de Paso de los Libres

Paso de los Libres, Argentina

latitud: 29-41S, longitud: 057-09W, altitud: 69 m

Observación

El informe se hizo hace 1 hora y 1 minutos, a las 11:00 UTC
Viento 6 kt del norte
Temperatura 31°C
Humedad 59%
Presión 1008 hPa
Visibilidad: 6000 m

METAR: SARL 221100Z 36006KT 6000 NSC 31/22 Q1008

Hora: 09:01 (12:01 UTC)


TAF: falta

Observaciones y pronósticos meteorológicos de más de 4000 aeropuertos (mensajes METAR y TAF).

Los puntos amarillos y rojos representan las estaciones disponibles.

Ponga el ratón en el punto deseado para ver el nombre de la estación.

Haga clic para ver las observaciones y los pronósticos meteorológicos.

Para cambiar el mapa : haga clic en los botones verdes con una cruz de color negro para hacer un zoom, en el botón verde con un guión para alejar o en las flechas verdes para mapas adyacentes.


METAR-TAF: